createdAt,value
2023-04-20T00:02:07.645Z,2.80
2023-04-20T00:04:36.671Z,2.53
2023-04-20T00:07:05.359Z,4.40
2023-04-20T00:09:33.718Z,3.92
2023-04-20T00:12:03.724Z,2.58
2023-04-20T00:14:34.474Z,4.75
2023-04-20T00:17:02.878Z,4.70
2023-04-20T00:19:34.081Z,3.78
2023-04-20T00:22:02.419Z,3.10
2023-04-20T00:24:30.857Z,2.08
2023-04-20T00:26:59.481Z,2.17
2023-04-20T00:29:29.211Z,4.40
2023-04-20T00:31:58.954Z,3.28
2023-04-20T00:34:27.514Z,3.13
2023-04-20T00:36:55.982Z,3.83
2023-04-20T00:39:27.802Z,4.22
2023-04-20T00:41:56.972Z,5.50
2023-04-20T00:44:28.081Z,3.30
2023-04-20T00:47:00.979Z,3.22
2023-04-20T00:49:30.892Z,3.35
2023-04-20T00:51:59.993Z,2.50
2023-04-20T00:54:29.126Z,3.85
2023-04-20T00:56:57.945Z,3.05
2023-04-20T00:59:26.414Z,3.25
2023-04-20T01:01:54.974Z,1.55
2023-04-20T01:04:24.867Z,3.15
2023-04-20T01:06:53.315Z,2.22
2023-04-20T01:09:24.119Z,2.60
2023-04-20T01:11:52.667Z,3.00
2023-04-20T01:14:21.116Z,3.95
2023-04-20T01:16:49.643Z,2.90
2023-04-20T01:19:18.366Z,2.25
2023-04-20T01:21:48.567Z,2.30
2023-04-20T01:24:19.193Z,3.63
2023-04-20T01:26:47.540Z,2.47
2023-04-20T01:29:18.475Z,3.78
2023-04-20T01:31:47.398Z,4.38
2023-04-20T01:34:17.596Z,3.78
2023-04-20T01:36:46.910Z,2.15
2023-04-20T01:39:15.552Z,3.58
2023-04-20T01:41:45.695Z,4.68
2023-04-20T01:44:14.058Z,3.20
2023-04-20T01:46:42.485Z,3.88
2023-04-20T01:49:10.982Z,2.05
2023-04-20T01:51:39.408Z,4.50
2023-04-20T01:54:12.820Z,2.15
2023-04-20T01:56:43.617Z,2.00
2023-04-20T01:59:13.359Z,6.25
2023-04-20T02:01:41.770Z,3.78
2023-04-20T02:04:10.767Z,2.80
2023-04-20T02:06:41.917Z,3.15
2023-04-20T02:09:11.438Z,2.65
2023-04-20T02:11:39.787Z,3.95
2023-04-20T02:14:08.405Z,6.47
2023-04-20T02:16:38.671Z,4.35
2023-04-20T02:19:07.340Z,3.45
2023-04-20T02:21:35.895Z,5.00
2023-04-20T02:24:04.654Z,3.10
2023-04-20T02:26:32.968Z,4.35
2023-04-20T02:29:01.880Z,4.88
2023-04-20T02:31:30.381Z,3.78
2023-04-20T02:34:00.056Z,4.57
2023-04-20T02:36:29.693Z,3.08
2023-04-20T02:38:58.205Z,3.58
2023-04-20T02:41:28.702Z,4.95
2023-04-20T02:43:57.351Z,6.75
2023-04-20T02:46:27.161Z,4.22
2023-04-20T02:48:56.447Z,3.10
2023-04-20T02:51:26.788Z,4.82
2023-04-20T02:53:56.023Z,3.25
2023-04-20T02:56:28.813Z,5.50
2023-04-20T02:59:01.979Z,3.97
2023-04-20T03:01:37.530Z,4.53
2023-04-20T03:04:12.843Z,4.85
2023-04-20T03:06:51.543Z,4.70
2023-04-20T03:09:25.469Z,5.55
2023-04-20T03:12:12.775Z,5.00
2023-04-20T03:14:56.325Z,6.75
2023-04-20T03:17:33.636Z,4.55
2023-04-20T03:20:02.402Z,7.90
2023-04-20T03:22:32.073Z,4.22
2023-04-20T03:25:02.844Z,4.00
2023-04-20T03:27:47.526Z,5.47
2023-04-20T03:30:16.930Z,4.43
2023-04-20T03:32:48.567Z,7.35
2023-04-20T03:35:17.690Z,4.90
2023-04-20T03:37:47.610Z,3.67
2023-04-20T03:40:16.143Z,3.97
2023-04-20T03:42:44.471Z,5.43
2023-04-20T03:45:13.269Z,7.68
2023-04-20T03:47:41.834Z,3.70
2023-04-20T03:50:10.525Z,3.45
2023-04-20T03:52:41.004Z,5.38
2023-04-20T03:55:12.834Z,7.07
2023-04-20T03:57:47.279Z,4.18
2023-04-20T04:00:16.414Z,7.40
2023-04-20T04:02:47.934Z,5.65
2023-04-20T04:05:22.868Z,4.43
2023-04-20T04:07:51.708Z,3.00
2023-04-20T04:10:21.835Z,9.45
2023-04-20T04:12:50.938Z,4.93
2023-04-20T04:15:20.189Z,8.32
2023-04-20T04:17:55.677Z,5.72
2023-04-20T04:20:24.521Z,4.43
2023-04-20T04:22:53.526Z,4.75
2023-04-20T04:25:36.063Z,6.22
2023-04-20T04:28:04.453Z,8.65
2023-04-20T04:30:34.968Z,6.47
2023-04-20T04:33:04.921Z,4.80
2023-04-20T04:35:35.467Z,4.82
2023-04-20T04:38:04.586Z,5.10
2023-04-20T04:40:33.979Z,5.13
2023-04-20T04:43:05.659Z,5.68
2023-04-20T04:45:39.653Z,5.18
2023-04-20T04:48:09.115Z,3.80
2023-04-20T04:50:37.674Z,5.55
2023-04-20T04:53:06.037Z,9.15
2023-04-20T04:55:36.797Z,8.25
2023-04-20T04:58:06.465Z,5.75
2023-04-20T05:00:34.957Z,5.68
2023-04-20T05:03:04.073Z,6.97
2023-04-20T05:05:32.428Z,5.05
2023-04-20T05:08:00.952Z,6.65
2023-04-20T05:10:29.863Z,4.15
2023-04-20T05:12:59.736Z,4.28
2023-04-20T05:15:29.708Z,4.45
2023-04-20T05:17:58.156Z,3.13
2023-04-20T05:20:26.862Z,3.65
2023-04-20T05:22:55.083Z,5.13
2023-04-20T05:25:23.712Z,4.68
2023-04-20T05:27:52.004Z,5.22
2023-04-20T05:30:21.737Z,5.65
2023-04-20T05:32:54.568Z,3.42
2023-04-20T05:35:22.992Z,5.78
2023-04-20T05:37:51.729Z,2.95
2023-04-20T05:40:24.584Z,1.90
2023-04-20T05:42:52.921Z,3.97
2023-04-20T05:45:21.185Z,2.90
2023-04-20T05:47:57.429Z,1.75
2023-04-20T05:50:25.950Z,2.35
2023-04-20T05:52:54.235Z,4.75
2023-04-20T05:55:23.137Z,3.60
2023-04-20T05:57:53.237Z,3.63
2023-04-20T06:00:25.248Z,3.50
2023-04-20T06:02:55.661Z,2.65
2023-04-20T06:05:25.822Z,3.38
2023-04-20T06:07:54.206Z,2.92
2023-04-20T06:10:22.747Z,4.22
2023-04-20T06:12:51.077Z,3.15
2023-04-20T06:15:19.535Z,4.28
2023-04-20T06:17:48.174Z,3.38
2023-04-20T06:20:16.823Z,4.00
2023-04-20T06:22:46.980Z,1.98
2023-04-20T06:25:16.083Z,5.60
2023-04-20T06:27:44.605Z,1.73
2023-04-20T06:30:13.639Z,4.13
2023-04-20T06:32:42.288Z,4.10
2023-04-20T06:35:10.948Z,3.42
2023-04-20T06:37:40.315Z,2.53
2023-04-20T06:40:10.394Z,2.85
2023-04-20T06:42:38.835Z,2.25
2023-04-20T06:45:07.556Z,3.60
2023-04-20T06:47:36.180Z,5.07
2023-04-20T06:50:09.065Z,3.20
2023-04-20T06:52:38.758Z,3.85
2023-04-20T06:55:07.487Z,4.47
2023-04-20T06:57:38.473Z,2.67
2023-04-20T07:00:08.520Z,6.22
2023-04-20T07:02:44.290Z,2.20
2023-04-20T07:05:12.851Z,2.47
2023-04-20T07:07:41.258Z,2.85
2023-04-20T07:10:09.861Z,3.15
2023-04-20T07:12:41.580Z,3.88
2023-04-20T07:15:11.876Z,3.63
2023-04-20T07:17:40.489Z,5.97
2023-04-20T07:20:09.534Z,5.22
2023-04-20T07:22:38.065Z,4.32
2023-04-20T07:25:07.406Z,2.30
2023-04-20T07:27:37.495Z,3.35
2023-04-20T07:30:09.101Z,5.32
2023-04-20T07:32:37.919Z,4.43
2023-04-20T07:35:06.887Z,3.08
2023-04-20T07:37:35.324Z,4.53
2023-04-20T07:40:06.108Z,5.05
2023-04-20T07:42:35.092Z,3.10
2023-04-20T07:45:03.590Z,5.03
2023-04-20T07:47:33.381Z,4.35
2023-04-20T07:50:02.079Z,4.72
2023-04-20T07:52:30.768Z,3.72
2023-04-20T07:54:59.881Z,5.03
2023-04-20T07:57:28.810Z,3.75
2023-04-20T07:59:57.246Z,3.45
2023-04-20T08:02:25.712Z,3.13
2023-04-20T08:04:56.108Z,3.00
2023-04-20T08:07:25.257Z,3.35
2023-04-20T08:09:54.078Z,3.55
2023-04-20T08:12:22.627Z,5.68
2023-04-20T08:14:51.895Z,5.63
2023-04-20T08:17:20.885Z,4.22
2023-04-20T08:19:49.402Z,2.63
2023-04-20T08:22:19.234Z,4.40
2023-04-20T08:24:47.885Z,4.63
2023-04-20T08:27:17.381Z,3.15
2023-04-20T08:29:46.093Z,4.28
2023-04-20T08:32:15.508Z,3.72
2023-04-20T08:34:43.938Z,3.88
2023-04-20T08:37:12.550Z,5.20
2023-04-20T08:39:42.347Z,5.00
2023-04-20T08:42:10.987Z,9.10
2023-04-20T08:44:39.448Z,4.50
2023-04-20T08:47:08.033Z,4.38
2023-04-20T08:49:36.683Z,3.22
2023-04-20T08:52:05.448Z,3.22
2023-04-20T08:54:35.303Z,4.38
2023-04-20T08:57:07.106Z,6.95
2023-04-20T08:59:35.808Z,4.05
2023-04-20T09:02:12.004Z,3.80
2023-04-20T09:04:41.202Z,4.70
2023-04-20T09:07:18.497Z,4.47
2023-04-20T09:09:55.900Z,8.90
2023-04-20T09:12:25.783Z,4.57
2023-04-20T09:14:54.890Z,4.35
2023-04-20T09:17:32.724Z,4.15
2023-04-20T09:20:01.663Z,4.47
2023-04-20T09:22:33.425Z,5.22
2023-04-20T09:25:02.069Z,4.88
2023-04-20T09:27:32.609Z,4.65
2023-04-20T09:30:01.427Z,5.35
2023-04-20T09:32:30.318Z,6.07
2023-04-20T09:34:58.913Z,4.65
2023-04-20T09:37:27.398Z,5.22
2023-04-20T09:39:57.253Z,3.83
2023-04-20T09:42:29.297Z,5.55
2023-04-20T09:45:02.479Z,5.45
2023-04-20T09:47:31.388Z,4.40
2023-04-20T09:50:14.085Z,3.47
2023-04-20T09:52:51.460Z,4.65
2023-04-20T09:55:21.177Z,4.00
2023-04-20T09:57:50.260Z,3.78
2023-04-20T10:00:20.912Z,4.72
2023-04-20T10:02:49.601Z,5.90
2023-04-20T10:05:18.107Z,5.03
2023-04-20T10:07:46.748Z,4.25
2023-04-20T10:10:16.083Z,4.25
2023-04-20T10:12:51.083Z,3.15
2023-04-20T10:15:21.820Z,6.68
2023-04-20T10:17:51.112Z,3.53
2023-04-20T10:20:20.593Z,5.35
2023-04-20T10:22:48.976Z,3.65
2023-04-20T10:25:18.471Z,3.35
2023-04-20T10:27:57.117Z,5.00
2023-04-20T10:30:28.220Z,3.28
2023-04-20T10:33:07.519Z,6.60
2023-04-20T10:35:46.431Z,5.95
2023-04-20T10:38:15.050Z,6.40
2023-04-20T10:40:43.675Z,5.47
2023-04-20T10:43:22.420Z,5.47
2023-04-20T10:45:52.372Z,4.50
2023-04-20T10:48:21.789Z,4.32
2023-04-20T10:50:50.078Z,5.22
2023-04-20T10:53:21.676Z,5.60
2023-04-20T10:56:00.110Z,4.38
2023-04-20T10:58:28.814Z,4.80
2023-04-20T11:01:03.225Z,5.07
2023-04-20T11:03:34.278Z,4.75
2023-04-20T11:06:04.141Z,3.75
2023-04-20T11:08:39.872Z,3.88
2023-04-20T11:11:19.145Z,5.18
2023-04-20T11:13:47.864Z,4.88
2023-04-20T11:16:18.504Z,8.65
2023-04-20T11:18:51.970Z,3.65
2023-04-20T11:21:20.792Z,3.50
2023-04-20T11:23:49.795Z,8.25
2023-04-20T11:26:18.872Z,3.60
2023-04-20T11:28:55.894Z,3.88
2023-04-20T11:31:28.098Z,4.07
2023-04-20T11:33:57.433Z,4.25
2023-04-20T11:36:26.813Z,5.72
2023-04-20T11:38:56.519Z,7.47
2023-04-20T11:41:24.969Z,4.07
2023-04-20T11:43:54.629Z,4.57
2023-04-20T11:46:23.243Z,5.55
2023-04-20T11:48:53.249Z,4.70
2023-04-20T11:51:21.577Z,7.35
2023-04-20T11:53:49.932Z,8.23
2023-04-20T11:56:18.496Z,7.78
2023-04-20T11:58:46.912Z,4.43
2023-04-20T12:01:16.923Z,6.28
2023-04-20T12:03:47.696Z,6.18
2023-04-20T12:06:17.844Z,6.82
2023-04-20T12:08:47.967Z,5.65
2023-04-20T12:11:16.914Z,6.25
2023-04-20T12:13:45.363Z,4.18
2023-04-20T12:16:13.860Z,3.67
2023-04-20T12:18:42.352Z,5.03
2023-04-20T12:21:10.755Z,4.38
2023-04-20T12:23:40.738Z,4.70
2023-04-20T12:26:09.351Z,4.18
2023-04-20T12:28:38.029Z,3.53
2023-04-20T12:31:07.774Z,6.93
2023-04-20T12:33:36.099Z,4.70
2023-04-20T12:36:04.380Z,4.05
2023-04-20T12:38:32.832Z,4.60
2023-04-20T12:41:02.550Z,5.40
2023-04-20T12:43:31.148Z,5.30
2023-04-20T12:46:00.087Z,6.00
2023-04-20T12:48:30.540Z,9.13
2023-04-20T12:50:58.960Z,3.75
2023-04-20T12:53:27.888Z,4.97
2023-04-20T12:56:01.109Z,6.97
2023-04-20T12:58:31.797Z,6.57
2023-04-20T13:01:00.439Z,3.72
2023-04-20T13:03:29.133Z,4.72
2023-04-20T13:05:57.678Z,6.90
2023-04-20T13:08:26.104Z,4.82
2023-04-20T13:10:54.467Z,3.97
2023-04-20T13:13:22.966Z,5.13
2023-04-20T13:15:55.194Z,4.25
2023-04-20T13:18:24.593Z,5.30
2023-04-20T13:20:52.959Z,7.53
2023-04-20T13:23:21.297Z,4.82
2023-04-20T13:25:49.633Z,4.25
2023-04-20T13:28:18.050Z,3.95
2023-04-20T13:30:46.617Z,4.68
2023-04-20T13:33:16.579Z,5.32
2023-04-20T13:35:45.020Z,8.07
2023-04-20T13:38:13.474Z,5.75
2023-04-20T13:40:42.018Z,5.90
2023-04-20T13:43:10.694Z,5.93
2023-04-20T13:45:39.142Z,4.47
2023-04-20T13:48:07.828Z,3.78
2023-04-20T13:50:37.640Z,5.20
2023-04-20T13:53:06.086Z,6.57
2023-04-20T13:55:34.639Z,7.68
2023-04-20T13:58:03.014Z,8.48
2023-04-20T14:03:00.123Z,5.53
2023-04-20T14:05:28.699Z,6.60
2023-04-20T14:08:01.392Z,4.35
2023-04-20T14:10:29.978Z,4.97
2023-04-20T14:12:58.605Z,4.75
2023-04-20T14:15:27.292Z,5.70
2023-04-20T14:17:55.854Z,6.18
2023-04-20T14:20:24.425Z,6.28
2023-04-20T14:22:53.053Z,5.22
2023-04-20T14:25:22.869Z,4.65
2023-04-20T14:27:51.221Z,4.75
2023-04-20T14:30:19.622Z,4.70
2023-04-20T14:32:55.321Z,4.93
2023-04-20T14:35:24.124Z,4.13
2023-04-20T14:37:52.665Z,5.30
2023-04-20T14:40:21.359Z,4.18
2023-04-20T14:42:51.050Z,4.68
2023-04-20T14:45:19.509Z,3.08
2023-04-20T14:47:48.241Z,6.88
2023-04-20T14:50:16.770Z,4.35
2023-04-20T14:52:47.170Z,3.65
2023-04-20T14:55:15.431Z,4.43
2023-04-20T14:57:44.201Z,3.17
2023-04-20T15:00:14.504Z,4.00
2023-04-20T15:02:43.066Z,4.53
2023-04-20T15:05:11.705Z,4.80
2023-04-20T15:07:40.103Z,4.43
2023-04-20T15:10:09.250Z,4.35
2023-04-20T15:12:37.878Z,3.85
2023-04-20T15:15:06.700Z,4.43
2023-04-20T15:17:36.728Z,4.32
2023-04-20T15:20:05.353Z,4.53
2023-04-20T15:22:33.632Z,3.95
2023-04-20T15:25:02.659Z,7.03
2023-04-20T15:27:31.161Z,4.82
2023-04-20T15:29:59.960Z,6.65
2023-04-20T15:32:30.120Z,4.47
2023-04-20T15:35:00.256Z,5.18
2023-04-20T15:37:30.415Z,4.53
2023-04-20T15:40:00.279Z,5.22
2023-04-20T15:42:29.009Z,4.28
2023-04-20T15:44:57.413Z,4.70
2023-04-20T15:47:25.839Z,4.90
2023-04-20T15:50:01.325Z,4.97
2023-04-20T15:52:33.690Z,5.70
2023-04-20T15:55:02.198Z,5.22
2023-04-20T15:57:31.517Z,9.70
2023-04-20T15:59:59.944Z,4.38
2023-04-20T16:02:29.047Z,4.70
2023-04-20T16:04:57.580Z,5.88
2023-04-20T16:07:25.979Z,4.65
2023-04-20T16:09:55.954Z,6.85
2023-04-20T16:12:24.226Z,5.47
2023-04-20T16:14:53.819Z,6.10
2023-04-20T16:17:22.667Z,6.72
2023-04-20T16:19:51.106Z,6.40
2023-04-20T16:22:19.479Z,5.57
2023-04-20T16:24:48.084Z,5.13
2023-04-20T16:27:18.892Z,5.75
2023-04-20T16:29:47.179Z,5.97
2023-04-20T16:32:15.715Z,7.88
2023-04-20T16:34:44.011Z,4.15
2023-04-20T16:37:18.575Z,5.47
2023-04-20T16:39:47.222Z,6.07
2023-04-20T16:42:15.916Z,4.57
2023-04-20T16:44:45.777Z,5.03
2023-04-20T16:47:14.277Z,7.93
2023-04-20T16:49:42.588Z,4.50
2023-04-20T16:52:11.050Z,4.90
2023-04-20T16:54:41.606Z,7.82
2023-04-20T16:57:09.910Z,4.15
2023-04-20T16:59:38.253Z,4.93
2023-04-20T17:02:08.254Z,5.65
2023-04-20T17:04:36.777Z,5.38
2023-04-20T17:07:05.157Z,5.25
2023-04-20T17:09:33.865Z,4.28
2023-04-20T17:12:02.219Z,5.03
2023-04-20T17:14:32.236Z,4.38
2023-04-20T17:17:00.763Z,4.15
2023-04-20T17:19:31.495Z,4.07
2023-04-20T17:22:00.016Z,5.47
2023-04-20T17:24:28.675Z,6.85
2023-04-20T17:26:57.144Z,5.85
2023-04-20T17:29:25.606Z,5.03
2023-04-20T17:31:54.051Z,6.40
2023-04-20T17:34:23.236Z,4.38
2023-04-20T17:36:52.910Z,4.15
2023-04-20T17:39:21.666Z,6.43
2023-04-20T17:41:50.043Z,5.55
2023-04-20T17:44:18.774Z,6.63
2023-04-20T17:46:47.423Z,6.13
2023-04-20T17:49:15.816Z,6.07
2023-04-20T17:51:44.290Z,5.18
2023-04-20T17:54:14.067Z,5.50
2023-04-20T17:56:42.353Z,7.05
2023-04-20T17:59:12.135Z,5.55
2023-04-20T18:01:40.745Z,6.40
2023-04-20T18:04:09.463Z,4.95
2023-04-20T18:06:37.994Z,5.65
2023-04-20T18:09:06.352Z,5.45
2023-04-20T18:11:35.962Z,6.75
2023-04-20T18:14:04.263Z,4.70
2023-04-20T18:16:33.406Z,8.05
2023-04-20T18:19:01.710Z,4.60
2023-04-20T18:21:31.432Z,5.70
2023-04-20T18:24:00.385Z,6.03
2023-04-20T18:26:28.819Z,5.10
2023-04-20T18:28:58.655Z,5.13
2023-04-20T18:31:27.699Z,5.20
2023-04-20T18:33:56.135Z,6.22
2023-04-20T18:36:24.482Z,4.55
2023-04-20T18:38:53.952Z,5.55
2023-04-20T18:41:23.321Z,7.05
2023-04-20T18:43:54.331Z,7.13
2023-04-20T18:46:25.549Z,6.78
2023-04-20T18:48:53.989Z,5.68
2023-04-20T18:51:23.480Z,5.97
2023-04-20T18:53:52.796Z,5.72
2023-04-20T18:56:21.082Z,6.90
2023-04-20T18:58:49.403Z,7.63
2023-04-20T19:01:18.338Z,6.90
2023-04-20T19:03:48.377Z,6.28
2023-04-20T19:06:16.944Z,6.50
2023-04-20T19:08:45.370Z,5.30
2023-04-20T19:11:13.823Z,5.63
2023-04-20T19:13:44.637Z,5.43
2023-04-20T19:16:13.222Z,4.78
2023-04-20T19:18:41.995Z,5.25
2023-04-20T19:21:12.034Z,5.38
2023-04-20T19:23:40.423Z,7.10
2023-04-20T19:26:08.763Z,5.60
2023-04-20T19:28:37.050Z,6.57
2023-04-20T19:31:05.662Z,6.63
2023-04-20T19:33:34.003Z,6.47
2023-04-20T19:36:03.507Z,5.97
2023-04-20T19:38:34.543Z,5.45
2023-04-20T19:41:03.052Z,5.30
2023-04-20T19:43:32.456Z,5.10
2023-04-20T19:46:01.172Z,5.75
2023-04-20T19:48:29.695Z,6.18
2023-04-20T19:50:59.506Z,6.72
2023-04-20T19:53:27.871Z,6.22
2023-04-20T19:55:57.565Z,6.10
2023-04-20T19:58:25.940Z,5.15
2023-04-20T20:00:54.414Z,6.10
2023-04-20T20:03:23.245Z,6.22
2023-04-20T20:05:51.665Z,10.63
2023-04-20T20:08:20.049Z,5.78
2023-04-20T20:10:48.543Z,6.45
2023-04-20T20:13:18.239Z,7.72
2023-04-20T20:15:46.596Z,6.53
2023-04-20T20:18:15.226Z,6.57
2023-04-20T20:20:43.489Z,6.75
2023-04-20T20:23:12.550Z,7.35
2023-04-20T20:25:41.094Z,7.20
2023-04-20T20:28:09.514Z,5.55
2023-04-20T20:30:41.453Z,7.35
2023-04-20T20:33:09.866Z,7.05
2023-04-20T20:35:38.390Z,6.30
2023-04-20T20:38:07.783Z,8.43
2023-04-20T20:40:36.382Z,5.50
2023-04-20T20:43:05.083Z,6.90
2023-04-20T20:45:33.965Z,5.53
2023-04-20T20:48:07.545Z,5.30
2023-04-20T20:50:36.166Z,8.35
2023-04-20T20:53:04.516Z,5.18
2023-04-20T20:55:33.132Z,5.85
2023-04-20T20:58:01.674Z,6.28
2023-04-20T21:00:30.013Z,7.25
2023-04-20T21:02:58.949Z,5.72
2023-04-20T21:05:28.756Z,5.88
2023-04-20T21:07:57.171Z,7.18
2023-04-20T21:10:25.739Z,5.43
2023-04-20T21:12:54.124Z,6.22
2023-04-20T21:15:22.392Z,7.38
2023-04-20T21:17:50.922Z,6.22
2023-04-20T21:20:19.284Z,6.13
2023-04-20T21:22:48.896Z,5.13
2023-04-20T21:25:17.228Z,5.53
2023-04-20T21:27:45.593Z,6.15
2023-04-20T21:30:14.376Z,6.35
2023-04-20T21:32:42.773Z,6.28
2023-04-20T21:35:11.455Z,5.93
2023-04-20T21:37:39.766Z,6.88
2023-04-20T21:40:10.725Z,5.72
2023-04-20T21:42:39.088Z,5.68
2023-04-20T21:45:07.833Z,6.65
2023-04-20T21:47:36.436Z,6.72
2023-04-20T21:50:04.705Z,6.10
2023-04-20T21:52:32.972Z,9.38
2023-04-20T21:55:01.745Z,7.57
2023-04-20T21:57:31.603Z,6.50
2023-04-20T21:59:59.922Z,8.43
2023-04-20T22:02:28.844Z,7.22
2023-04-20T22:04:57.943Z,7.07
2023-04-20T22:07:27.564Z,6.45
2023-04-20T22:09:56.047Z,7.90
2023-04-20T22:12:38.482Z,7.05
2023-04-20T22:15:11.687Z,7.25
2023-04-20T22:17:40.537Z,7.72
2023-04-20T22:20:10.089Z,7.38
2023-04-20T22:22:39.463Z,6.68
2023-04-20T22:25:08.166Z,7.95
2023-04-20T22:27:37.728Z,7.50
2023-04-20T22:30:08.689Z,7.50
2023-04-20T22:32:38.605Z,7.18
2023-04-20T22:35:07.874Z,7.20
2023-04-20T22:37:36.308Z,8.13
2023-04-20T22:40:05.889Z,6.38
2023-04-20T22:42:34.787Z,7.97
2023-04-20T22:45:03.267Z,9.00
2023-04-20T22:47:32.387Z,9.05
2023-04-20T22:50:03.247Z,9.00
2023-04-20T22:52:34.910Z,9.20
2023-04-20T22:55:03.243Z,8.68
2023-04-20T22:57:31.919Z,9.00
2023-04-20T23:00:01.444Z,8.43
2023-04-20T23:02:30.051Z,8.95
2023-04-20T23:04:58.777Z,10.95
2023-04-20T23:07:28.805Z,11.80
2023-04-20T23:09:57.949Z,10.70
2023-04-20T23:12:26.732Z,10.95
2023-04-20T23:14:55.047Z,12.38
2023-04-20T23:17:23.581Z,10.18
2023-04-20T23:19:52.562Z,9.80
2023-04-20T23:22:20.839Z,10.48
2023-04-20T23:24:50.770Z,9.48
2023-04-20T23:27:19.190Z,9.75
2023-04-20T23:29:47.461Z,13.48
2023-04-20T23:32:16.115Z,11.77
2023-04-20T23:34:44.465Z,9.80
2023-04-20T23:37:13.282Z,11.25
2023-04-20T23:39:41.660Z,11.02
2023-04-20T23:42:11.479Z,10.45
2023-04-20T23:44:39.788Z,10.60
2023-04-20T23:47:08.192Z,11.05
2023-04-20T23:49:36.407Z,10.25
2023-04-20T23:52:04.704Z,12.75
2023-04-20T23:54:33.553Z,10.95
2023-04-20T23:57:02.728Z,12.40
2023-04-20T23:59:32.467Z,11.80
